sensor_id;sensor_type;location;lat;lon;timestamp;pressure;altitude;pressure_sealevel;temperature;humidity
70240;BME280;57629;52.256;10.414;2022-08-19T00:00:38;100506.25;;;24.73;58.77
70240;BME280;57629;52.256;10.414;2022-08-19T00:01:42;100507.03;;;24.74;58.88
70240;BME280;57629;52.256;10.414;2022-08-19T00:02:43;100504.38;;;24.74;58.84
70240;BME280;57629;52.256;10.414;2022-08-19T00:03:44;100499.78;;;24.74;58.31
70240;BME280;57629;52.256;10.414;2022-08-19T00:04:44;100500.88;;;24.73;58.25
70240;BME280;57629;52.256;10.414;2022-08-19T00:05:45;100496.31;;;24.74;58.67
70240;BME280;57629;52.256;10.414;2022-08-19T00:06:46;100489.88;;;24.75;58.76
70240;BME280;57629;52.256;10.414;2022-08-19T00:07:47;100490.94;;;24.74;58.75
70240;BME280;57629;52.256;10.414;2022-08-19T00:08:48;100484.78;;;24.73;58.20
70240;BME280;57629;52.256;10.414;2022-08-19T00:09:49;100492.03;;;24.73;58.26
70240;BME280;57629;52.256;10.414;2022-08-19T00:10:49;100491.22;;;24.72;58.15
70240;BME280;57629;52.256;10.414;2022-08-19T00:11:50;100490.94;;;24.74;58.33
70240;BME280;57629;52.256;10.414;2022-08-19T00:12:51;100493.63;;;24.74;58.54
70240;BME280;57629;52.256;10.414;2022-08-19T00:13:52;100492.03;;;24.73;58.69
70240;BME280;57629;52.256;10.414;2022-08-19T00:14:53;100486.66;;;24.73;58.65
70240;BME280;57629;52.256;10.414;2022-08-19T00:15:53;100484.78;;;24.73;58.66
70240;BME280;57629;52.256;10.414;2022-08-19T00:16:56;100487.44;;;24.73;58.44
70240;BME280;57629;52.256;10.414;2022-08-19T00:17:56;100495.50;;;24.73;58.19
70240;BME280;57629;52.256;10.414;2022-08-19T00:18:57;100489.34;;;24.73;58.09
70240;BME280;57629;52.256;10.414;2022-08-19T00:19:58;100500.09;;;24.73;58.42
70240;BME280;57629;52.256;10.414;2022-08-19T00:20:59;100493.91;;;24.72;58.72
70240;BME280;57629;52.256;10.414;2022-08-19T00:21:59;100496.59;;;24.72;58.19
70240;BME280;57629;52.256;10.414;2022-08-19T00:23:00;100494.72;;;24.73;58.66
70240;BME280;57629;52.256;10.414;2022-08-19T00:24:01;100489.34;;;24.73;58.62
70240;BME280;57629;52.256;10.414;2022-08-19T00:25:02;100494.72;;;24.73;58.05
70240;BME280;57629;52.256;10.414;2022-08-19T00:26:04;100491.22;;;24.72;58.04
70240;BME280;57629;52.256;10.414;2022-08-19T00:27:05;100499.28;;;24.72;58.07
70240;BME280;57629;52.256;10.414;2022-08-19T00:28:06;100500.88;;;24.73;58.13
70240;BME280;57629;52.256;10.414;2022-08-19T00:29:08;100510.03;;;24.72;58.48
70240;BME280;57629;52.256;10.414;2022-08-19T00:30:31;100507.34;;;24.72;58.08
70240;BME280;57629;52.256;10.414;2022-08-19T00:31:32;100506.53;;;24.71;58.01
70240;BME280;57629;52.256;10.414;2022-08-19T00:32:49;100515.66;;;24.70;58.22
70240;BME280;57629;52.256;10.414;2022-08-19T00:33:49;100513.78;;;24.71;58.58
70240;BME280;57629;52.256;10.414;2022-08-19T00:35:04;100513.78;;;24.71;58.52
70240;BME280;57629;52.256;10.414;2022-08-19T00:36:09;100501.44;;;24.70;58.10
70240;BME280;57629;52.256;10.414;2022-08-19T00:37:10;100496.88;;;24.70;58.14
70240;BME280;57629;52.256;10.414;2022-08-19T00:38:10;100491.75;;;24.69;57.96
70240;BME280;57629;52.256;10.414;2022-08-19T00:39:13;100494.19;;;24.70;58.00
70240;BME280;57629;52.256;10.414;2022-08-19T00:40:14;100494.97;;;24.71;58.49
70240;BME280;57629;52.256;10.414;2022-08-19T00:41:17;100496.88;;;24.70;58.37
70240;BME280;57629;52.256;10.414;2022-08-19T00:42:20;100496.88;;;24.70;58.36
70240;BME280;57629;52.256;10.414;2022-08-19T00:43:22;100500.34;;;24.71;58.09
70240;BME280;57629;52.256;10.414;2022-08-19T00:44:25;100494.97;;;24.71;58.39
70240;BME280;57629;52.256;10.414;2022-08-19T00:45:27;100504.13;;;24.70;57.87
70240;BME280;57629;52.256;10.414;2022-08-19T00:46:29;100502.25;;;24.70;57.92
70240;BME280;57629;52.256;10.414;2022-08-19T00:47:30;100497.66;;;24.71;57.73
70240;BME280;57629;52.256;10.414;2022-08-19T00:48:33;100500.34;;;24.71;58.03
70240;BME280;57629;52.256;10.414;2022-08-19T00:49:36;100496.88;;;24.70;57.95
70240;BME280;57629;52.256;10.414;2022-08-19T00:50:40;100502.25;;;24.70;57.97
70240;BME280;57629;52.256;10.414;2022-08-19T00:51:43;100496.06;;;24.70;58.08
70240;BME280;57629;52.256;10.414;2022-08-19T00:52:47;100498.22;;;24.68;58.20
70240;BME280;57629;52.256;10.414;2022-08-19T00:53:49;100486.41;;;24.69;58.37
70240;BME280;57629;52.256;10.414;2022-08-19T00:54:50;100485.59;;;24.68;57.87
70240;BME280;57629;52.256;10.414;2022-08-19T00:55:54;100490.97;;;24.68;57.90
70240;BME280;57629;52.256;10.414;2022-08-19T00:56:56;100480.22;;;24.68;58.25
70240;BME280;57629;52.256;10.414;2022-08-19T00:58:00;100481.31;;;24.67;57.90
70240;BME280;57629;52.256;10.414;2022-08-19T00:59:03;100477.53;;;24.68;57.88
70240;BME280;57629;52.256;10.414;2022-08-19T01:00:07;100473.28;;;24.67;58.32
70240;BME280;57629;52.256;10.414;2022-08-19T01:01:08;100476.75;;;24.68;58.42
70240;BME280;57629;52.256;10.414;2022-08-19T01:02:09;100475.97;;;24.67;58.38
70240;BME280;57629;52.256;10.414;2022-08-19T01:03:11;100467.06;;;24.67;58.16
70240;BME280;57629;52.256;10.414;2022-08-19T01:04:13;100468.97;;;24.66;57.98
70240;BME280;57629;52.256;10.414;2022-08-19T01:05:16;100472.75;;;24.65;57.93
70240;BME280;57629;52.256;10.414;2022-08-19T01:06:17;100483.19;;;24.67;57.77
70240;BME280;57629;52.256;10.414;2022-08-19T01:07:18;100478.91;;;24.66;57.92
70240;BME280;57629;52.256;10.414;2022-08-19T01:08:19;100482.69;;;24.65;57.81
70240;BME280;57629;52.256;10.414;2022-08-19T01:09:20;100478.91;;;24.66;58.31
70240;BME280;57629;52.256;10.414;2022-08-19T01:10:25;100477.31;;;24.65;58.46
70240;BME280;57629;52.256;10.414;2022-08-19T01:11:26;100481.59;;;24.66;58.27
70240;BME280;57629;52.256;10.414;2022-08-19T01:12:27;100486.16;;;24.65;58.03
70240;BME280;57629;52.256;10.414;2022-08-19T01:13:30;100473.00;;;24.64;58.48
70240;BME280;57629;52.256;10.414;2022-08-19T01:14:33;100484.53;;;24.64;57.85
70240;BME280;57629;52.256;10.414;2022-08-19T01:15:38;100488.31;;;24.63;58.29
70240;BME280;57629;52.256;10.414;2022-08-19T01:16:41;100480.25;;;24.63;58.44
70240;BME280;57629;52.256;10.414;2022-08-19T01:17:42;100483.22;;;24.62;57.96
70240;BME280;57629;52.256;10.414;2022-08-19T01:18:43;100482.94;;;24.63;57.85
70240;BME280;57629;52.256;10.414;2022-08-19T01:19:46;100479.47;;;24.63;58.23
70240;BME280;57629;52.256;10.414;2022-08-19T01:20:48;100475.69;;;24.64;57.83
70240;BME280;57629;52.256;10.414;2022-08-19T01:21:53;100475.16;;;24.62;57.75
70240;BME280;57629;52.256;10.414;2022-08-19T01:22:58;100472.47;;;24.62;57.92
70240;BME280;57629;52.256;10.414;2022-08-19T01:23:59;100479.47;;;24.63;57.85
70240;BME280;57629;52.256;10.414;2022-08-19T01:25:00;100471.69;;;24.61;57.91
70240;BME280;57629;52.256;10.414;2022-08-19T01:26:00;100465.53;;;24.61;57.96
70240;BME280;57629;52.256;10.414;2022-08-19T01:27:04;100478.66;;;24.62;57.77
70240;BME280;57629;52.256;10.414;2022-08-19T01:28:05;100477.84;;;24.62;58.31
70240;BME280;57629;52.256;10.414;2022-08-19T01:29:07;100471.69;;;24.61;57.74
70240;BME280;57629;52.256;10.414;2022-08-19T01:30:09;100470.88;;;24.61;58.10
70240;BME280;57629;52.256;10.414;2022-08-19T01:31:13;100471.97;;;24.60;58.22
70240;BME280;57629;52.256;10.414;2022-08-19T01:32:16;100476.25;;;24.61;57.96
70240;BME280;57629;52.256;10.414;2022-08-19T01:33:16;100478.94;;;24.61;58.28
70240;BME280;57629;52.256;10.414;2022-08-19T01:34:17;100474.66;;;24.60;57.78
70240;BME280;57629;52.256;10.414;2022-08-19T01:35:19;100468.47;;;24.59;57.79
70240;BME280;57629;52.256;10.414;2022-08-19T01:36:23;100473.03;;;24.59;57.90
70240;BME280;57629;52.256;10.414;2022-08-19T01:37:24;100476.53;;;24.59;58.05
70240;BME280;57629;52.256;10.414;2022-08-19T01:38:26;100466.88;;;24.58;58.06
70240;BME280;57629;52.256;10.414;2022-08-19T01:39:27;100470.34;;;24.59;58.20
70240;BME280;57629;52.256;10.414;2022-08-19T01:40:30;100469.56;;;24.58;58.08
70240;BME280;57629;52.256;10.414;2022-08-19T01:41:31;100472.25;;;24.58;57.82
70240;BME280;57629;52.256;10.414;2022-08-19T01:42:32;100471.44;;;24.58;58.27
70240;BME280;57629;52.256;10.414;2022-08-19T01:43:33;100474.94;;;24.58;57.80
70240;BME280;57629;52.256;10.414;2022-08-19T01:44:34;100472.25;;;24.58;57.67
70240;BME280;57629;52.256;10.414;2022-08-19T01:45:35;100479.50;;;24.58;57.82
70240;BME280;57629;52.256;10.414;2022-08-19T01:46:36;100482.19;;;24.58;57.89
70240;BME280;57629;52.256;10.414;2022-08-19T01:47:37;100474.13;;;24.58;57.77
70240;BME280;57629;52.256;10.414;2022-08-19T01:48:40;100470.66;;;24.57;57.82
70240;BME280;57629;52.256;10.414;2022-08-19T01:49:41;100467.97;;;24.57;58.25
70240;BME280;57629;52.256;10.414;2022-08-19T01:50:42;100474.41;;;24.56;57.85
70240;BME280;57629;52.256;10.414;2022-08-19T01:51:42;100467.97;;;24.57;57.82
70240;BME280;57629;52.256;10.414;2022-08-19T01:52:44;100467.16;;;24.57;58.32
70240;BME280;57629;52.256;10.414;2022-08-19T01:53:49;100468.75;;;24.58;58.03
70240;BME280;57629;52.256;10.414;2022-08-19T01:54:50;100467.16;;;24.57;58.19
70240;BME280;57629;52.256;10.414;2022-08-19T01:55:50;100462.88;;;24.56;57.82
70240;BME280;57629;52.256;10.414;2022-08-19T01:56:51;100460.19;;;24.56;57.82
70240;BME280;57629;52.256;10.414;2022-08-19T01:57:56;100469.81;;;24.57;57.69
70240;BME280;57629;52.256;10.414;2022-08-19T01:59:00;100470.66;;;24.57;58.17
70240;BME280;57629;52.256;10.414;2022-08-19T02:00:04;100464.47;;;24.57;57.79
70240;BME280;57629;52.256;10.414;2022-08-19T02:01:06;100463.66;;;24.56;57.96
70240;BME280;57629;52.256;10.414;2022-08-19T02:02:07;100460.97;;;24.56;58.21
70240;BME280;57629;52.256;10.414;2022-08-19T02:03:08;100462.59;;;24.57;57.90
70240;BME280;57629;52.256;10.414;2022-08-19T02:04:09;100460.72;;;24.58;57.83
70240;BME280;57629;52.256;10.414;2022-08-19T02:05:11;100457.22;;;24.57;57.76
70240;BME280;57629;52.256;10.414;2022-08-19T02:06:12;100458.81;;;24.58;57.74
70240;BME280;57629;52.256;10.414;2022-08-19T02:07:13;100457.22;;;24.57;57.89
70240;BME280;57629;52.256;10.414;2022-08-19T02:08:14;100456.41;;;24.57;57.98
70240;BME280;57629;52.256;10.414;2022-08-19T02:09:16;100460.97;;;24.56;57.89
70240;BME280;57629;52.256;10.414;2022-08-19T02:10:18;100459.91;;;24.57;57.77
70240;BME280;57629;52.256;10.414;2022-08-19T02:11:22;100460.72;;;24.58;57.95
70240;BME280;57629;52.256;10.414;2022-08-19T02:12:23;100463.41;;;24.58;57.78
70240;BME280;57629;52.256;10.414;2022-08-19T02:13:27;100463.41;;;24.58;57.62
70240;BME280;57629;52.256;10.414;2022-08-19T02:14:27;100469.81;;;24.57;57.63
70240;BME280;57629;52.256;10.414;2022-08-19T02:15:28;100466.09;;;24.58;58.05
70240;BME280;57629;52.256;10.414;2022-08-19T02:16:29;100463.41;;;24.58;57.75
70240;BME280;57629;52.256;10.414;2022-08-19T02:17:30;100464.47;;;24.57;57.75
70240;BME280;57629;52.256;10.414;2022-08-19T02:18:31;100465.28;;;24.57;57.69
70240;BME280;57629;52.256;10.414;2022-08-19T02:19:32;100471.72;;;24.56;57.62
70240;BME280;57629;52.256;10.414;2022-08-19T02:20:32;100464.47;;;24.57;57.58
70240;BME280;57629;52.256;10.414;2022-08-19T02:21:34;100468.75;;;24.58;58.00
70240;BME280;57629;52.256;10.414;2022-08-19T02:22:34;100460.97;;;24.56;57.93
70240;BME280;57629;52.256;10.414;2022-08-19T02:23:35;100461.78;;;24.57;57.99
70240;BME280;57629;52.256;10.414;2022-08-19T02:24:37;100462.59;;;24.57;58.03
70240;BME280;57629;52.256;10.414;2022-08-19T02:25:38;100463.66;;;24.56;57.72
70240;BME280;57629;52.256;10.414;2022-08-19T02:26:39;100460.97;;;24.56;57.84
70240;BME280;57629;52.256;10.414;2022-08-19T02:27:41;100460.19;;;24.56;57.69
70240;BME280;57629;52.256;10.414;2022-08-19T02:28:42;100462.59;;;24.57;57.57
70240;BME280;57629;52.256;10.414;2022-08-19T02:29:43;100459.09;;;24.57;57.74
70240;BME280;57629;52.256;10.414;2022-08-19T02:30:46;100453.72;;;24.57;57.91
70240;BME280;57629;52.256;10.414;2022-08-19T02:31:47;100456.41;;;24.57;57.99
70240;BME280;57629;52.256;10.414;2022-08-19T02:32:48;100458.28;;;24.56;57.72
70240;BME280;57629;52.256;10.414;2022-08-19T02:33:49;100452.91;;;24.56;57.54
70240;BME280;57629;52.256;10.414;2022-08-19T02:34:50;100450.25;;;24.56;57.99
70240;BME280;57629;52.256;10.414;2022-08-19T02:35:50;100458.28;;;24.56;57.82
70240;BME280;57629;52.256;10.414;2022-08-19T02:36:51;100458.28;;;24.56;57.91
70240;BME280;57629;52.256;10.414;2022-08-19T02:37:51;100457.22;;;24.57;57.42
70240;BME280;57629;52.256;10.414;2022-08-19T02:38:52;100456.41;;;24.57;57.98
70240;BME280;57629;52.256;10.414;2022-08-19T02:39:55;100466.34;;;24.56;57.81
70240;BME280;57629;52.256;10.414;2022-08-19T02:40:58;100458.28;;;24.56;57.43
70240;BME280;57629;52.256;10.414;2022-08-19T02:41:59;100456.41;;;24.57;57.90
70240;BME280;57629;52.256;10.414;2022-08-19T02:43:00;100458.28;;;24.56;57.70
70240;BME280;57629;52.256;10.414;2022-08-19T02:44:02;100459.09;;;24.57;58.05
70240;BME280;57629;52.256;10.414;2022-08-19T02:45:04;100443.28;;;24.55;57.69
70240;BME280;57629;52.256;10.414;2022-08-19T02:46:14;100455.59;;;24.56;57.68
70240;BME280;57629;52.256;10.414;2022-08-19T02:47:14;100449.19;;;24.57;57.98
70240;BME280;57629;52.256;10.414;2022-08-19T02:48:16;100452.91;;;24.56;57.62
70240;BME280;57629;52.256;10.414;2022-08-19T02:49:17;100449.44;;;24.56;57.35
70240;BME280;57629;52.256;10.414;2022-08-19T02:50:17;100456.69;;;24.55;57.98
70240;BME280;57629;52.256;10.414;2022-08-19T02:51:20;100456.69;;;24.55;57.57
70240;BME280;57629;52.256;10.414;2022-08-19T02:52:21;100453.22;;;24.55;57.59
70240;BME280;57629;52.256;10.414;2022-08-19T02:53:22;100455.59;;;24.56;57.95
70240;BME280;57629;52.256;10.414;2022-08-19T02:54:24;100455.09;;;24.54;57.98
70240;BME280;57629;52.256;10.414;2022-08-19T02:55:26;100454.00;;;24.55;57.57
70240;BME280;57629;52.256;10.414;2022-08-19T02:56:27;100443.53;;;24.54;57.87
70240;BME280;57629;52.256;10.414;2022-08-19T02:57:27;100447.03;;;24.54;57.84
70240;BME280;57629;52.256;10.414;2022-08-19T02:58:30;100441.94;;;24.53;57.78
70240;BME280;57629;52.256;10.414;2022-08-19T02:59:30;100448.13;;;24.53;57.99
70240;BME280;57629;52.256;10.414;2022-08-19T03:00:31;100444.63;;;24.53;57.77
70240;BME280;57629;52.256;10.414;2022-08-19T03:01:32;100447.31;;;24.53;57.48
70240;BME280;57629;52.256;10.414;2022-08-19T03:02:33;100457.25;;;24.52;57.80
70240;BME280;57629;52.256;10.414;2022-08-19T03:03:33;100452.69;;;24.53;57.35
70240;BME280;57629;52.256;10.414;2022-08-19T03:04:34;100451.91;;;24.52;57.48
70240;BME280;57629;52.256;10.414;2022-08-19T03:05:35;100457.53;;;24.50;57.87
70240;BME280;57629;52.256;10.414;2022-08-19T03:06:36;100457.53;;;24.50;58.02
70240;BME280;57629;52.256;10.414;2022-08-19T03:07:37;100452.16;;;24.50;57.75
70240;BME280;57629;52.256;10.414;2022-08-19T03:08:39;100459.41;;;24.50;57.84
70240;BME280;57629;52.256;10.414;2022-08-19T03:09:40;100460.22;;;24.50;57.92
70240;BME280;57629;52.256;10.414;2022-08-19T03:10:44;100456.75;;;24.50;57.54
70240;BME280;57629;52.256;10.414;2022-08-19T03:11:46;100457.78;;;24.49;57.80
70240;BME280;57629;52.256;10.414;2022-08-19T03:12:46;100454.06;;;24.50;57.32
70240;BME280;57629;52.256;10.414;2022-08-19T03:13:47;100460.47;;;24.49;57.54
70240;BME280;57629;52.256;10.414;2022-08-19T03:14:48;100468.53;;;24.49;57.46
70240;BME280;57629;52.256;10.414;2022-08-19T03:15:49;100466.66;;;24.49;57.92
70240;BME280;57629;52.256;10.414;2022-08-19T03:16:51;100465.84;;;24.49;57.44
70240;BME280;57629;52.256;10.414;2022-08-19T03:17:52;100471.22;;;24.49;57.98
70240;BME280;57629;52.256;10.414;2022-08-19T03:18:53;100474.69;;;24.49;57.65
70240;BME280;57629;52.256;10.414;2022-08-19T03:19:56;100476.59;;;24.49;57.78
70240;BME280;57629;52.256;10.414;2022-08-19T03:20:56;100477.69;;;24.48;57.68
70240;BME280;57629;52.256;10.414;2022-08-19T03:21:57;100481.97;;;24.49;57.42
70240;BME280;57629;52.256;10.414;2022-08-19T03:22:58;100475.78;;;24.48;57.63
70240;BME280;57629;52.256;10.414;2022-08-19T03:24:01;100479.56;;;24.47;57.78
70240;BME280;57629;52.256;10.414;2022-08-19T03:25:03;100476.88;;;24.47;57.79
70240;BME280;57629;52.256;10.414;2022-08-19T03:26:05;100474.19;;;24.47;57.78
70240;BME280;57629;52.256;10.414;2022-08-19T03:27:06;100482.25;;;24.47;57.83
70240;BME280;57629;52.256;10.414;2022-08-19T03:28:07;100476.06;;;24.47;57.91
70240;BME280;57629;52.256;10.414;2022-08-19T03:29:08;100473.38;;;24.47;57.51
70240;BME280;57629;52.256;10.414;2022-08-19T03:30:10;100464.53;;;24.46;57.58
70240;BME280;57629;52.256;10.414;2022-08-19T03:31:13;100470.69;;;24.47;57.83
70240;BME280;57629;52.256;10.414;2022-08-19T03:32:13;100471.50;;;24.47;57.59
70240;BME280;57629;52.256;10.414;2022-08-19T03:33:14;100463.47;;;24.47;57.43
70240;BME280;57629;52.256;10.414;2022-08-19T03:34:17;100465.63;;;24.45;58.01
70240;BME280;57629;52.256;10.414;2022-08-19T03:35:18;100463.72;;;24.46;57.53
70240;BME280;57629;52.256;10.414;2022-08-19T03:36:21;100475.25;;;24.46;57.85
70240;BME280;57629;52.256;10.414;2022-08-19T03:37:22;100474.19;;;24.47;57.77
70240;BME280;57629;52.256;10.414;2022-08-19T03:38:23;100475.25;;;24.46;57.98
70240;BME280;57629;52.256;10.414;2022-08-19T03:39:24;100470.97;;;24.45;57.85
70240;BME280;57629;52.256;10.414;2022-08-19T03:40:25;100476.34;;;24.45;57.94
70240;BME280;57629;52.256;10.414;2022-08-19T03:41:29;100475.53;;;24.45;57.91
70240;BME280;57629;52.256;10.414;2022-08-19T03:42:30;100479.84;;;24.46;57.54
70240;BME280;57629;52.256;10.414;2022-08-19T03:43:31;100474.69;;;24.44;57.87
70240;BME280;57629;52.256;10.414;2022-08-19T03:44:32;100476.34;;;24.45;57.41
70240;BME280;57629;52.256;10.414;2022-08-19T03:45:33;100470.16;;;24.45;57.66
70240;BME280;57629;52.256;10.414;2022-08-19T03:46:33;100468.31;;;24.45;57.62
70240;BME280;57629;52.256;10.414;2022-08-19T03:47:36;100467.47;;;24.45;57.92
70240;BME280;57629;52.256;10.414;2022-08-19T03:48:39;100471.22;;;24.44;57.58
70240;BME280;57629;52.256;10.414;2022-08-19T03:49:40;100463.97;;;24.44;57.78
70240;BME280;57629;52.256;10.414;2022-08-19T03:50:41;100472.84;;;24.45;57.83
70240;BME280;57629;52.256;10.414;2022-08-19T03:51:42;100474.69;;;24.44;57.58
70240;BME280;57629;52.256;10.414;2022-08-19T03:52:48;100472.00;;;24.44;57.46
70240;BME280;57629;52.256;10.414;2022-08-19T03:53:48;100476.34;;;24.45;57.65
70240;BME280;57629;52.256;10.414;2022-08-19T03:54:49;100472.84;;;24.45;57.63
70240;BME280;57629;52.256;10.414;2022-08-19T03:55:50;100474.47;;;24.46;57.41
70240;BME280;57629;52.256;10.414;2022-08-19T03:56:54;100473.66;;;24.45;57.60
70240;BME280;57629;52.256;10.414;2022-08-19T03:57:55;100475.53;;;24.45;57.30
70240;BME280;57629;52.256;10.414;2022-08-19T03:58:56;100476.34;;;24.45;57.82
70240;BME280;57629;52.256;10.414;2022-08-19T03:59:56;100472.84;;;24.45;57.81
70240;BME280;57629;52.256;10.414;2022-08-19T04:00:57;100475.25;;;24.46;57.67
70240;BME280;57629;52.256;10.414;2022-08-19T04:02:00;100474.47;;;24.46;57.42
70240;BME280;57629;52.256;10.414;2022-08-19T04:03:01;100473.66;;;24.45;57.34
70240;BME280;57629;52.256;10.414;2022-08-19T04:04:03;100473.38;;;24.47;57.24
70240;BME280;57629;52.256;10.414;2022-08-19T04:05:04;100471.78;;;24.46;57.18
70240;BME280;57629;52.256;10.414;2022-08-19T04:06:12;100472.56;;;24.46;57.43
70240;BME280;57629;52.256;10.414;2022-08-19T04:07:14;100476.06;;;24.47;57.71
70240;BME280;57629;52.256;10.414;2022-08-19T04:08:14;100469.34;;;24.44;57.12
70240;BME280;57629;52.256;10.414;2022-08-19T04:09:15;100474.47;;;24.46;57.25
70240;BME280;57629;52.256;10.414;2022-08-19T04:10:16;100474.47;;;24.46;57.19
70240;BME280;57629;52.256;10.414;2022-08-19T04:11:19;100471.78;;;24.46;57.42
70240;BME280;57629;52.256;10.414;2022-08-19T04:12:21;100477.16;;;24.46;57.49
70240;BME280;57629;52.256;10.414;2022-08-19T04:13:22;100477.16;;;24.46;57.70
70240;BME280;57629;52.256;10.414;2022-08-19T04:14:26;100487.09;;;24.45;57.70
70240;BME280;57629;52.256;10.414;2022-08-19T04:15:27;100485.19;;;24.46;57.19
70240;BME280;57629;52.256;10.414;2022-08-19T04:16:28;100489.47;;;24.47;57.13
70240;BME280;57629;52.256;10.414;2022-08-19T04:17:29;100486.00;;;24.46;57.72
70240;BME280;57629;52.256;10.414;2022-08-19T04:18:30;100489.47;;;24.47;57.69
70240;BME280;57629;52.256;10.414;2022-08-19T04:19:31;100492.16;;;24.47;57.28
70240;BME280;57629;52.256;10.414;2022-08-19T04:20:32;100492.16;;;24.47;57.63
70240;BME280;57629;52.256;10.414;2022-08-19T04:21:33;100502.91;;;24.47;57.38
70240;BME280;57629;52.256;10.414;2022-08-19T04:22:34;100492.16;;;24.47;57.67
70240;BME280;57629;52.256;10.414;2022-08-19T04:23:35;100499.69;;;24.45;57.73
70240;BME280;57629;52.256;10.414;2022-08-19T04:24:35;100496.72;;;24.46;57.64
70240;BME280;57629;52.256;10.414;2022-08-19T04:25:38;100495.94;;;24.46;57.10
70240;BME280;57629;52.256;10.414;2022-08-19T04:26:39;100494.06;;;24.46;57.41
70240;BME280;57629;52.256;10.414;2022-08-19T04:27:41;100492.47;;;24.45;57.48
70240;BME280;57629;52.256;10.414;2022-08-19T04:28:42;100490.56;;;24.46;57.15
70240;BME280;57629;52.256;10.414;2022-08-19T04:29:43;100488.94;;;24.45;57.33
70240;BME280;57629;52.256;10.414;2022-08-19T04:30:46;100497.00;;;24.45;57.28
70240;BME280;57629;52.256;10.414;2022-08-19T04:31:48;100495.38;;;24.44;57.25
70240;BME280;57629;52.256;10.414;2022-08-19T04:32:49;100503.19;;;24.45;57.07
70240;BME280;57629;52.256;10.414;2022-08-19T04:33:49;100491.38;;;24.46;57.19
70240;BME280;57629;52.256;10.414;2022-08-19T04:34:50;100492.47;;;24.45;57.53
70240;BME280;57629;52.256;10.414;2022-08-19T04:35:52;100494.31;;;24.45;57.34
70240;BME280;57629;52.256;10.414;2022-08-19T04:36:55;100497.81;;;24.45;57.00
70240;BME280;57629;52.256;10.414;2022-08-19T04:37:55;100501.31;;;24.46;57.14
70240;BME280;57629;52.256;10.414;2022-08-19T04:38:58;100493.25;;;24.46;57.33
70240;BME280;57629;52.256;10.414;2022-08-19T04:39:59;100506.69;;;24.46;57.25
70240;BME280;57629;52.256;10.414;2022-08-19T04:41:02;100509.34;;;24.46;57.60
70240;BME280;57629;52.256;10.414;2022-08-19T04:42:03;100502.09;;;24.46;57.25
70240;BME280;57629;52.256;10.414;2022-08-19T04:43:05;100509.34;;;24.46;57.01
70240;BME280;57629;52.256;10.414;2022-08-19T04:44:06;100498.84;;;24.44;57.41
70240;BME280;57629;52.256;10.414;2022-08-19T04:45:10;100502.38;;;24.45;57.59
70240;BME280;57629;52.256;10.414;2022-08-19T04:46:12;100505.88;;;24.45;57.15
70240;BME280;57629;52.256;10.414;2022-08-19T04:47:13;100505.06;;;24.45;57.08
70240;BME280;57629;52.256;10.414;2022-08-19T04:48:13;100504.22;;;24.44;57.20
70240;BME280;57629;52.256;10.414;2022-08-19T04:49:15;100503.44;;;24.44;57.09
70240;BME280;57629;52.256;10.414;2022-08-19T04:50:17;100505.06;;;24.45;57.55
70240;BME280;57629;52.256;10.414;2022-08-19T04:51:17;100499.16;;;24.43;57.50
70240;BME280;57629;52.256;10.414;2022-08-19T04:52:18;100507.19;;;24.43;57.53
70240;BME280;57629;52.256;10.414;2022-08-19T04:53:18;100501.84;;;24.43;57.32
70240;BME280;57629;52.256;10.414;2022-08-19T04:54:20;100501.03;;;24.42;57.40
70240;BME280;57629;52.256;10.414;2022-08-19T04:55:21;100502.91;;;24.42;57.24
70240;BME280;57629;52.256;10.414;2022-08-19T04:56:23;100505.56;;;24.42;57.46
70240;BME280;57629;52.256;10.414;2022-08-19T04:57:25;100505.56;;;24.42;57.52
70240;BME280;57629;52.256;10.414;2022-08-19T04:58:27;100501.31;;;24.41;57.37
70240;BME280;57629;52.256;10.414;2022-08-19T04:59:28;100505.56;;;24.42;57.55
70240;BME280;57629;52.256;10.414;2022-08-19T05:00:28;100500.50;;;24.40;57.00
70240;BME280;57629;52.256;10.414;2022-08-19T05:01:30;100501.31;;;24.41;57.17
70240;BME280;57629;52.256;10.414;2022-08-19T05:02:31;100504.78;;;24.41;57.08
70240;BME280;57629;52.256;10.414;2022-08-19T05:03:32;100498.63;;;24.41;57.23
70240;BME280;57629;52.256;10.414;2022-08-19T05:04:33;100503.19;;;24.40;57.43
70240;BME280;57629;52.256;10.414;2022-08-19T05:05:38;100493.25;;;24.41;57.05
70240;BME280;57629;52.256;10.414;2022-08-19T05:06:39;100495.13;;;24.40;57.43
70240;BME280;57629;52.256;10.414;2022-08-19T05:07:39;100502.09;;;24.41;57.16
70240;BME280;57629;52.256;10.414;2022-08-19T05:08:42;100483.59;;;24.40;57.21
70240;BME280;57629;52.256;10.414;2022-08-19T05:09:43;100492.47;;;24.40;57.47
70240;BME280;57629;52.256;10.414;2022-08-19T05:10:43;100492.47;;;24.40;57.33
70240;BME280;57629;52.256;10.414;2022-08-19T05:11:44;100486.28;;;24.40;57.61
70240;BME280;57629;52.256;10.414;2022-08-19T05:12:45;100481.72;;;24.40;57.24
70240;BME280;57629;52.256;10.414;2022-08-19T05:13:47;100484.66;;;24.39;57.47
70240;BME280;57629;52.256;10.414;2022-08-19T05:14:48;100476.63;;;24.39;57.09
70240;BME280;57629;52.256;10.414;2022-08-19T05:15:53;100477.41;;;24.39;57.35
70240;BME280;57629;52.256;10.414;2022-08-19T05:16:54;100478.25;;;24.40;57.60
70240;BME280;57629;52.256;10.414;2022-08-19T05:17:55;100480.94;;;24.40;57.25
70240;BME280;57629;52.256;10.414;2022-08-19T05:18:55;100476.34;;;24.40;57.46